Terminal Aerodrome Forecast
Issued by NWS Greer, SC

Home | Current Version | Previous Version | Text Only | Print | Product List | Glossary On
Versions: 1 2 3 4 5 6 7 8 9 10 11 12 13 14 15 16 17 18 19 20 21 22 23 24 25 26 27 28 29 30 31 32 33 34 35 36 37 38 39 40
000
FTUS42 KGSP 041137
TAFAVL
TAF
KAVL 041137Z 0412/0512 18010KT P6SM OVC050 WS020/24040KT
     FM041400 18009KT P6SM BKN050
     FM050300 33004KT 5SM BR BKN021
     FM050700 34006KT 4SM -RA BR BKN021
     FM051100 34011KT 3SM -RA BR OVC023=

USA.gov is the U.S. government's official web portal to all federal, state and local government web resources and services.